createdAt,value
2022-10-19T00:02:21.847Z,5.43
2022-10-19T00:04:45.673Z,5.28
2022-10-19T00:07:09.255Z,5.63
2022-10-19T00:09:34.206Z,5.63
2022-10-19T00:11:57.707Z,5.80
2022-10-19T00:14:23.870Z,5.28
2022-10-19T00:16:49.096Z,5.20
2022-10-19T00:19:18.343Z,5.22
2022-10-19T00:21:42.262Z,5.22
2022-10-19T00:24:06.827Z,5.20
2022-10-19T00:26:31.755Z,4.75
2022-10-19T00:28:55.838Z,5.68
2022-10-19T00:31:19.794Z,5.30
2022-10-19T00:33:46.403Z,5.55
2022-10-19T00:36:17.684Z,4.45
2022-10-19T00:38:43.462Z,5.22
2022-10-19T00:41:07.214Z,5.13
2022-10-19T00:43:33.275Z,4.72
2022-10-19T00:45:56.780Z,5.20
2022-10-19T00:48:25.809Z,4.40
2022-10-19T00:50:51.716Z,4.72
2022-10-19T00:53:15.999Z,4.30
2022-10-19T00:55:40.919Z,4.15
2022-10-19T00:58:04.723Z,3.65
2022-10-19T01:00:29.916Z,3.67
2022-10-19T01:02:53.527Z,4.47
2022-10-19T01:05:18.897Z,4.10
2022-10-19T01:07:42.991Z,3.83
2022-10-19T01:10:07.928Z,3.85
2022-10-19T01:13:09.047Z,4.18
2022-10-19T01:15:42.881Z,3.83
2022-10-19T01:18:15.715Z,3.70
2022-10-19T01:21:10.351Z,3.60
2022-10-19T01:24:23.583Z,2.92
2022-10-19T01:27:17.375Z,3.03
2022-10-19T01:30:05.051Z,2.75
2022-10-19T01:32:43.815Z,2.92
2022-10-19T01:35:12.960Z,2.30
2022-10-19T01:37:45.452Z,2.38
2022-10-19T01:40:13.980Z,2.20
2022-10-19T01:42:46.182Z,2.33
2022-10-19T01:45:19.014Z,2.20
2022-10-19T01:47:51.605Z,2.25
2022-10-19T01:50:20.498Z,2.22
2022-10-19T01:52:45.324Z,2.28
2022-10-19T01:55:11.848Z,2.70
2022-10-19T01:57:41.052Z,2.60
2022-10-19T02:00:11.366Z,2.35
2022-10-19T02:02:42.290Z,2.70
2022-10-19T02:05:09.219Z,3.00
2022-10-19T02:07:34.164Z,2.83
2022-10-19T02:09:58.266Z,2.80
2022-10-19T02:12:22.921Z,2.67
2022-10-19T02:14:52.214Z,3.55
2022-10-19T02:17:22.413Z,3.08
2022-10-19T02:19:46.224Z,3.08
2022-10-19T02:22:10.427Z,3.35
2022-10-19T02:24:34.083Z,2.35
2022-10-19T02:26:58.231Z,3.03
2022-10-19T02:29:22.171Z,2.50
2022-10-19T02:31:46.339Z,2.78
2022-10-19T02:34:12.172Z,2.60
2022-10-19T02:36:35.843Z,2.72
2022-10-19T02:38:59.526Z,3.80
2022-10-19T02:41:28.432Z,2.80
2022-10-19T02:43:57.536Z,2.47
2022-10-19T02:46:27.128Z,2.83
2022-10-19T02:48:52.392Z,2.90
2022-10-19T02:51:38.074Z,2.83
2022-10-19T02:54:04.952Z,3.15
2022-10-19T02:56:29.235Z,2.65
2022-10-19T02:58:52.836Z,2.60
2022-10-19T03:01:20.773Z,2.60
2022-10-19T03:03:44.382Z,2.15
2022-10-19T03:06:07.983Z,2.13
2022-10-19T03:08:32.959Z,2.35
2022-10-19T03:10:59.751Z,2.20
2022-10-19T03:13:23.354Z,1.92
2022-10-19T03:15:47.522Z,1.90
2022-10-19T03:18:11.115Z,1.75
2022-10-19T03:20:34.638Z,1.90
2022-10-19T03:22:58.196Z,1.92
2022-10-19T03:25:23.141Z,2.15
2022-10-19T03:27:48.139Z,2.40
2022-10-19T03:30:12.577Z,2.92
2022-10-19T03:32:36.200Z,2.35
2022-10-19T03:34:59.720Z,2.35
2022-10-19T03:37:23.336Z,2.60
2022-10-19T03:39:46.838Z,2.03
2022-10-19T03:42:11.879Z,2.35
2022-10-19T03:44:35.468Z,1.95
2022-10-19T03:46:59.082Z,1.73
2022-10-19T03:49:23.187Z,1.70
2022-10-19T03:51:46.842Z,1.63
2022-10-19T03:54:15.880Z,1.50
2022-10-19T03:56:39.517Z,1.30
2022-10-19T03:59:06.410Z,1.23
2022-10-19T04:01:33.865Z,1.30
2022-10-19T04:03:59.300Z,1.15
2022-10-19T04:06:30.236Z,1.10
2022-10-19T04:08:54.212Z,1.17
2022-10-19T04:11:24.877Z,1.27
2022-10-19T04:13:50.609Z,1.30
2022-10-19T04:16:15.703Z,1.25
2022-10-19T04:18:39.264Z,1.33
2022-10-19T04:21:05.082Z,1.00
2022-10-19T04:23:30.655Z,1.20
2022-10-19T04:25:54.207Z,1.67
2022-10-19T04:28:17.735Z,1.60
2022-10-19T04:30:41.238Z,1.65
2022-10-19T04:33:06.222Z,1.40
2022-10-19T04:35:29.736Z,1.40
2022-10-19T04:37:53.349Z,1.70
2022-10-19T04:40:17.026Z,1.70
2022-10-19T04:42:40.597Z,1.50
2022-10-19T04:45:04.445Z,1.45
2022-10-19T04:47:27.999Z,1.50
2022-10-19T04:49:52.887Z,1.65
2022-10-19T04:52:16.506Z,1.77
2022-10-19T04:54:40.020Z,1.65
2022-10-19T04:57:03.553Z,1.58
2022-10-19T04:59:27.198Z,1.80
2022-10-19T05:01:50.766Z,1.48
2022-10-19T05:04:14.259Z,1.35
2022-10-19T05:06:39.491Z,1.70
2022-10-19T05:09:03.060Z,1.30
2022-10-19T05:11:27.243Z,1.30
2022-10-19T05:13:51.127Z,1.38
2022-10-19T05:16:17.941Z,1.63
2022-10-19T05:18:42.286Z,2.47
2022-10-19T05:21:08.915Z,2.72
2022-10-19T05:23:33.948Z,2.03
2022-10-19T05:26:05.386Z,1.98
2022-10-19T05:28:29.102Z,2.00
2022-10-19T05:30:52.675Z,2.00
2022-10-19T05:33:16.226Z,1.45
2022-10-19T05:35:39.763Z,1.73
2022-10-19T05:38:03.385Z,1.70
2022-10-19T05:40:28.699Z,1.45
2022-10-19T05:42:52.432Z,1.30
2022-10-19T05:45:16.211Z,1.30
2022-10-19T05:47:39.900Z,1.42
2022-10-19T05:50:03.519Z,1.40
2022-10-19T05:52:27.128Z,1.50
2022-10-19T05:54:50.701Z,1.60
2022-10-19T05:57:15.723Z,1.35
2022-10-19T05:59:39.242Z,1.40
2022-10-19T06:02:02.927Z,1.63
2022-10-19T06:04:26.833Z,1.15
2022-10-19T06:06:50.425Z,1.95
2022-10-19T06:09:14.272Z,1.40
2022-10-19T06:11:41.544Z,1.20
2022-10-19T06:14:09.700Z,1.40
2022-10-19T06:16:34.442Z,1.55
2022-10-19T06:18:58.683Z,1.50
2022-10-19T06:21:26.734Z,1.20
2022-10-19T06:23:52.359Z,1.30
2022-10-19T06:26:16.391Z,1.15
2022-10-19T06:28:42.193Z,1.20
2022-10-19T06:31:09.188Z,1.52
2022-10-19T06:33:33.176Z,1.55
2022-10-19T06:35:56.874Z,1.90
2022-10-19T06:38:20.397Z,1.60
2022-10-19T06:40:43.962Z,1.65
2022-10-19T06:43:07.538Z,2.00
2022-10-19T06:45:35.752Z,1.50
2022-10-19T06:48:04.995Z,1.25
2022-10-19T06:50:31.912Z,1.88
2022-10-19T06:52:55.464Z,1.58
2022-10-19T06:55:19.166Z,1.60
2022-10-19T06:57:42.667Z,1.70
2022-10-19T07:00:08.272Z,1.42
2022-10-19T07:02:31.844Z,1.40
2022-10-19T07:04:56.790Z,1.67
2022-10-19T07:07:20.297Z,1.48
2022-10-19T07:09:43.886Z,1.60
2022-10-19T07:12:08.496Z,1.80
2022-10-19T07:14:38.620Z,1.80
2022-10-19T07:17:02.251Z,1.60
2022-10-19T07:19:27.947Z,2.10
2022-10-19T07:21:54.088Z,1.88
2022-10-19T07:24:17.631Z,1.85
2022-10-19T07:26:41.364Z,1.95
2022-10-19T07:29:05.296Z,1.80
2022-10-19T07:31:30.209Z,1.60
2022-10-19T07:33:55.017Z,1.98
2022-10-19T07:36:18.570Z,1.70
2022-10-19T07:38:43.538Z,1.25
2022-10-19T07:41:09.572Z,1.50
2022-10-19T07:43:33.173Z,1.67
2022-10-19T07:46:00.435Z,1.30
2022-10-19T07:48:23.933Z,1.55
2022-10-19T07:50:50.036Z,1.90
2022-10-19T07:53:13.555Z,2.10
2022-10-19T07:55:38.556Z,2.47
2022-10-19T07:58:02.138Z,3.22
2022-10-19T08:00:25.920Z,2.97
2022-10-19T08:03:05.123Z,2.13
2022-10-19T08:05:34.528Z,2.50
2022-10-19T08:07:58.084Z,2.35
2022-10-19T08:10:21.720Z,1.90
2022-10-19T08:12:46.829Z,2.20
2022-10-19T08:15:11.263Z,1.88
2022-10-19T08:17:37.711Z,2.50
2022-10-19T08:20:01.296Z,2.13
2022-10-19T08:22:24.828Z,2.10
2022-10-19T08:24:48.407Z,1.80
2022-10-19T08:27:11.971Z,1.98
2022-10-19T08:29:36.891Z,1.90
2022-10-19T08:32:01.146Z,2.25
2022-10-19T08:34:25.331Z,1.10
2022-10-19T08:36:48.899Z,1.10
2022-10-19T08:39:13.978Z,1.50
2022-10-19T08:41:53.821Z,1.20
2022-10-19T08:44:43.349Z,1.15
2022-10-19T08:47:22.325Z,1.13
2022-10-19T08:49:47.755Z,2.65
2022-10-19T08:52:16.750Z,3.70
2022-10-19T08:57:26.768Z,1.88
2022-10-19T08:59:58.747Z,1.63
2022-10-19T09:02:37.672Z,1.58
2022-10-19T09:05:08.879Z,1.83
2022-10-19T09:07:37.533Z,1.65
2022-10-19T09:10:06.607Z,1.30
2022-10-19T09:12:42.807Z,1.50
2022-10-19T09:15:13.482Z,1.30
2022-10-19T09:17:37.125Z,1.42
2022-10-19T09:20:16.440Z,1.90
2022-10-19T09:22:40.323Z,1.45
2022-10-19T09:25:11.811Z,1.67
2022-10-19T09:27:39.697Z,1.73
2022-10-19T09:30:10.926Z,1.58
2022-10-19T09:32:37.885Z,1.13
2022-10-19T09:35:04.852Z,1.20
2022-10-19T09:39:57.926Z,3.10
2022-10-19T09:42:26.306Z,1.50
2022-10-19T09:44:51.224Z,1.63
2022-10-19T09:47:38.170Z,0.93
2022-10-19T09:50:20.258Z,1.20
2022-10-19T09:52:45.712Z,1.05
2022-10-19T09:55:26.336Z,1.33
2022-10-19T09:57:52.162Z,1.08
2022-10-19T10:00:20.306Z,0.80
2022-10-19T10:02:51.391Z,1.40
2022-10-19T10:05:16.706Z,0.70
2022-10-19T10:07:41.086Z,0.90
2022-10-19T10:10:12.337Z,0.75
2022-10-19T10:12:37.024Z,0.80
2022-10-19T10:15:00.923Z,1.10
2022-10-19T10:17:30.459Z,0.80
2022-10-19T10:20:19.578Z,0.80
2022-10-19T10:22:57.410Z,1.50
2022-10-19T10:25:22.827Z,0.60
2022-10-19T10:27:59.156Z,0.30
2022-10-19T10:30:22.758Z,0.63
2022-10-19T10:32:51.683Z,0.60
2022-10-19T10:35:22.796Z,0.60
2022-10-19T10:37:48.523Z,0.70
2022-10-19T10:40:24.599Z,0.70
2022-10-19T10:42:50.538Z,0.75
2022-10-19T10:45:21.827Z,0.75
2022-10-19T10:47:48.347Z,0.85
2022-10-19T10:50:23.144Z,0.80
2022-10-19T10:53:02.066Z,0.70
2022-10-19T10:55:26.604Z,1.02
2022-10-19T10:57:55.952Z,0.70
2022-10-19T11:00:22.086Z,0.73
2022-10-19T11:02:50.851Z,0.80
2022-10-19T11:05:23.020Z,0.68
2022-10-19T11:07:49.763Z,0.88
2022-10-19T11:10:31.631Z,1.00
2022-10-19T11:13:05.994Z,1.20
2022-10-19T11:15:36.316Z,0.80
2022-10-19T11:18:13.108Z,0.90
2022-10-19T11:20:44.541Z,1.13
2022-10-19T11:23:16.347Z,1.00
2022-10-19T11:25:54.643Z,0.80
2022-10-19T11:28:36.047Z,1.35
2022-10-19T11:31:16.615Z,1.00
2022-10-19T11:33:55.087Z,1.10
2022-10-19T11:36:42.823Z,1.10
2022-10-19T11:39:23.032Z,1.35
2022-10-19T11:41:59.470Z,1.10
2022-10-19T11:44:40.238Z,0.90
2022-10-19T11:47:29.149Z,0.93
2022-10-19T11:50:03.271Z,0.90
2022-10-19T11:52:38.816Z,0.90
2022-10-19T11:55:14.418Z,0.80
2022-10-19T11:57:48.282Z,1.08
2022-10-19T12:00:37.580Z,1.70
2022-10-19T12:03:50.195Z,0.90
2022-10-19T12:06:21.218Z,0.98
2022-10-19T12:09:06.450Z,1.15
2022-10-19T12:11:56.819Z,1.02
2022-10-19T12:14:25.875Z,0.88
2022-10-19T12:16:54.520Z,0.70
2022-10-19T12:19:22.979Z,1.00
2022-10-19T12:21:47.915Z,0.80
2022-10-19T12:24:19.115Z,0.88
2022-10-19T12:26:43.112Z,0.82
2022-10-19T12:29:14.484Z,0.88
2022-10-19T12:31:38.430Z,0.88
2022-10-19T12:34:11.000Z,1.15
2022-10-19T12:36:42.691Z,1.15
2022-10-19T12:39:18.511Z,1.13
2022-10-19T12:41:52.269Z,1.17
2022-10-19T12:44:47.894Z,1.35
2022-10-19T12:47:18.223Z,0.80
2022-10-19T12:49:52.523Z,0.80
2022-10-19T12:52:19.263Z,0.82
2022-10-19T12:54:45.469Z,0.93
2022-10-19T12:57:27.766Z,0.60
2022-10-19T13:00:06.034Z,0.90
2022-10-19T13:05:02.503Z,0.75
2022-10-19T13:07:28.418Z,0.80
2022-10-19T13:10:01.982Z,1.00
2022-10-19T13:12:41.058Z,0.82
2022-10-19T13:15:06.808Z,1.13
2022-10-19T13:17:49.019Z,1.00
2022-10-19T13:20:52.935Z,0.80
2022-10-19T13:23:42.880Z,0.88
2022-10-19T13:26:34.710Z,0.88
2022-10-19T13:28:58.488Z,0.77
2022-10-19T13:31:28.523Z,1.15
2022-10-19T13:33:55.016Z,1.02
2022-10-19T13:36:19.927Z,0.85
2022-10-19T13:38:46.314Z,1.05
2022-10-19T13:41:30.007Z,1.50
2022-10-19T13:44:05.063Z,1.00
2022-10-19T13:46:47.831Z,0.95
2022-10-19T13:49:44.579Z,1.02
2022-10-19T13:52:53.853Z,0.90
2022-10-19T13:56:03.566Z,0.80
2022-10-19T13:59:22.539Z,0.90
2022-10-19T14:02:17.037Z,0.93
2022-10-19T14:04:49.675Z,1.30
2022-10-19T14:07:17.853Z,1.00
2022-10-19T14:10:09.244Z,1.10
2022-10-19T14:12:36.819Z,1.05
2022-10-19T14:15:01.793Z,1.10
2022-10-19T14:17:30.146Z,0.70
2022-10-19T14:19:57.162Z,0.57
2022-10-19T14:22:26.474Z,0.80
2022-10-19T14:24:50.314Z,0.70
2022-10-19T14:27:22.487Z,1.00
2022-10-19T14:29:48.581Z,1.00
2022-10-19T14:32:14.138Z,1.02
2022-10-19T14:34:42.302Z,0.80
2022-10-19T14:37:05.903Z,0.70
2022-10-19T14:39:33.731Z,0.90
2022-10-19T14:41:59.405Z,0.90
2022-10-19T14:44:40.909Z,0.90
2022-10-19T14:47:23.175Z,0.90
2022-10-19T14:49:47.118Z,1.30
2022-10-19T14:52:13.333Z,0.93
2022-10-19T14:54:40.893Z,0.85
2022-10-19T14:57:08.958Z,0.80
2022-10-19T14:59:37.379Z,1.00
2022-10-19T15:02:05.444Z,0.82
2022-10-19T15:04:34.463Z,0.90
2022-10-19T15:06:59.487Z,1.70
2022-10-19T15:09:37.802Z,1.67
2022-10-19T15:12:17.110Z,1.42
2022-10-19T15:14:40.851Z,0.77
2022-10-19T15:17:06.922Z,0.88
2022-10-19T15:19:35.160Z,0.90
2022-10-19T15:22:17.617Z,0.77
2022-10-19T15:24:42.743Z,1.02
2022-10-19T15:27:21.855Z,1.00
2022-10-19T15:29:56.298Z,0.75
2022-10-19T15:32:24.734Z,0.90
2022-10-19T15:34:49.694Z,0.88
2022-10-19T15:37:21.850Z,0.80
2022-10-19T15:39:45.879Z,0.90
2022-10-19T15:42:36.264Z,1.00
2022-10-19T15:45:00.203Z,0.98
2022-10-19T15:47:25.544Z,1.10
2022-10-19T15:50:32.573Z,1.13
2022-10-19T15:52:57.502Z,1.13
2022-10-19T15:55:21.027Z,1.02
2022-10-19T15:57:44.642Z,1.08
2022-10-19T16:00:15.162Z,1.08
2022-10-19T16:02:39.085Z,1.30
2022-10-19T16:05:02.788Z,1.50
2022-10-19T16:07:29.887Z,1.80
2022-10-19T16:09:55.495Z,2.03
2022-10-19T16:12:19.415Z,1.92
2022-10-19T16:14:43.287Z,2.20
2022-10-19T16:17:06.960Z,2.10
2022-10-19T16:19:30.549Z,2.67
2022-10-19T16:21:54.347Z,2.65
2022-10-19T16:24:17.852Z,3.00
2022-10-19T16:26:42.831Z,3.42
2022-10-19T16:29:06.437Z,3.80
2022-10-19T16:31:31.462Z,5.32
2022-10-19T16:33:55.018Z,7.43
2022-10-19T16:36:20.270Z,6.75
2022-10-19T16:38:43.806Z,6.57
2022-10-19T16:41:10.128Z,7.00
2022-10-19T16:43:35.358Z,8.52
2022-10-19T16:45:59.375Z,6.57
2022-10-19T16:48:23.997Z,5.57
2022-10-19T16:51:16.750Z,6.10
2022-10-19T16:53:40.598Z,6.20
2022-10-19T16:56:06.750Z,7.07
2022-10-19T16:58:30.396Z,5.60
2022-10-19T17:00:56.293Z,6.15
2022-10-19T17:03:19.845Z,5.57
2022-10-19T17:05:43.545Z,4.20
2022-10-19T17:08:08.336Z,4.53
2022-10-19T17:10:31.919Z,5.50
2022-10-19T17:12:55.459Z,6.97
2022-10-19T17:18:05.853Z,4.82
2022-10-19T17:20:29.452Z,4.82
2022-10-19T17:22:53.635Z,4.60
2022-10-19T17:25:17.259Z,5.03
2022-10-19T17:27:41.014Z,4.15
2022-10-19T17:30:05.148Z,4.20
2022-10-19T17:32:28.791Z,3.88
2022-10-19T17:34:55.249Z,3.75
2022-10-19T17:37:18.831Z,3.30
2022-10-19T17:39:42.395Z,3.63
2022-10-19T17:42:05.969Z,3.50
2022-10-19T17:44:30.664Z,3.10
2022-10-19T17:46:54.494Z,3.10
2022-10-19T17:49:18.816Z,3.30
2022-10-19T17:51:44.587Z,3.38
2022-10-19T17:54:11.896Z,3.05
2022-10-19T17:56:37.411Z,3.17
2022-10-19T17:59:02.987Z,3.90
2022-10-19T18:01:28.133Z,3.47
2022-10-19T18:03:52.322Z,3.65
2022-10-19T18:06:18.213Z,3.55
2022-10-19T18:08:46.112Z,3.85
2022-10-19T18:11:13.519Z,3.95
2022-10-19T18:16:09.235Z,4.55
2022-10-19T18:18:35.929Z,6.20
2022-10-19T18:20:59.941Z,5.00
2022-10-19T18:23:23.579Z,4.85
2022-10-19T18:25:54.209Z,6.75
2022-10-19T18:28:18.562Z,8.88
2022-10-19T18:30:45.166Z,7.10
2022-10-19T18:33:08.988Z,7.47
2022-10-19T18:35:36.898Z,9.23
2022-10-19T18:38:00.569Z,11.00
2022-10-19T18:40:24.482Z,9.93
2022-10-19T18:42:49.466Z,13.65
2022-10-19T18:45:13.123Z,18.23
2022-10-19T18:47:36.924Z,13.73
2022-10-19T18:50:00.447Z,16.95
2022-10-19T18:52:24.064Z,15.90
2022-10-19T18:54:47.729Z,14.45
2022-10-19T18:57:11.299Z,13.93
2022-10-19T18:59:36.330Z,12.07
2022-10-19T19:01:59.967Z,12.20
2022-10-19T19:04:23.510Z,11.75
2022-10-19T19:06:47.091Z,11.52
2022-10-19T19:09:12.922Z,11.18
2022-10-19T19:11:38.536Z,13.13
2022-10-19T19:14:06.196Z,12.55
2022-10-19T19:16:36.291Z,11.18
2022-10-19T19:18:59.912Z,12.05
2022-10-19T19:21:26.822Z,12.48
2022-10-19T19:23:51.851Z,11.02
2022-10-19T19:26:16.615Z,12.40
2022-10-19T19:28:41.917Z,15.88
2022-10-19T19:31:07.470Z,15.25
2022-10-19T19:33:32.466Z,16.48
2022-10-19T19:35:56.023Z,15.75
2022-10-19T19:38:19.947Z,14.48
2022-10-19T19:40:45.486Z,13.68
2022-10-19T19:43:09.192Z,14.50
2022-10-19T19:45:32.762Z,14.05
2022-10-19T19:47:56.327Z,14.18
2022-10-19T19:50:21.280Z,12.50
2022-10-19T19:52:44.846Z,12.90
2022-10-19T19:55:09.297Z,13.25
2022-10-19T19:57:33.104Z,14.00
2022-10-19T19:59:56.842Z,13.85
2022-10-19T20:02:21.169Z,13.15
2022-10-19T20:04:44.755Z,13.40
2022-10-19T20:07:09.695Z,14.15
2022-10-19T20:09:33.483Z,15.32
2022-10-19T20:11:57.080Z,13.90
2022-10-19T20:14:21.502Z,14.65
2022-10-19T20:16:45.089Z,14.82
2022-10-19T20:19:10.953Z,15.10
2022-10-19T20:21:34.761Z,16.23
2022-10-19T20:23:59.687Z,15.63
2022-10-19T20:26:25.355Z,13.98
2022-10-19T20:28:49.479Z,17.92
2022-10-19T20:31:14.047Z,16.83
2022-10-19T20:33:39.744Z,16.60
2022-10-19T20:36:06.519Z,15.65
2022-10-19T20:38:30.066Z,17.70
2022-10-19T20:40:54.991Z,19.33
2022-10-19T20:43:18.537Z,17.57
2022-10-19T20:45:42.206Z,18.57
2022-10-19T20:48:06.032Z,16.77
2022-10-19T20:50:29.554Z,16.70
2022-10-19T20:52:53.091Z,17.38
2022-10-19T20:55:16.904Z,14.53
2022-10-19T20:57:41.867Z,15.32
2022-10-19T21:00:06.861Z,15.05
2022-10-19T21:02:30.441Z,15.20
2022-10-19T21:04:54.063Z,14.47
2022-10-19T21:07:17.624Z,13.52
2022-10-19T21:09:41.142Z,13.43
2022-10-19T21:12:04.934Z,14.60
2022-10-19T21:14:31.507Z,14.53
2022-10-19T21:16:56.490Z,13.80
2022-10-19T21:19:25.242Z,12.53
2022-10-19T21:21:52.590Z,13.63
2022-10-19T21:24:18.422Z,13.98
2022-10-19T21:26:42.163Z,14.77
2022-10-19T21:29:09.407Z,13.77
2022-10-19T21:31:34.475Z,12.57
2022-10-19T21:33:58.259Z,13.40
2022-10-19T21:36:25.070Z,13.13
2022-10-19T21:38:48.975Z,13.93
2022-10-19T21:41:14.961Z,14.27
2022-10-19T21:43:38.559Z,13.30
2022-10-19T21:46:03.905Z,13.02
2022-10-19T21:48:28.863Z,12.35
2022-10-19T21:50:52.507Z,13.77
2022-10-19T21:53:20.486Z,14.60
2022-10-19T21:55:44.033Z,14.25
2022-10-19T21:58:07.572Z,13.53
2022-10-19T22:00:31.673Z,13.67
2022-10-19T22:02:55.181Z,12.67
2022-10-19T22:05:20.114Z,14.40
2022-10-19T22:07:43.743Z,15.03
2022-10-19T22:10:07.945Z,15.95
2022-10-19T22:12:31.611Z,14.20
2022-10-19T22:14:55.239Z,14.00
2022-10-19T22:17:18.762Z,13.27
2022-10-19T22:19:42.346Z,16.27
2022-10-19T22:22:07.327Z,14.30
2022-10-19T22:24:30.914Z,15.57
2022-10-19T22:26:54.578Z,14.20
2022-10-19T22:29:18.413Z,14.20
2022-10-19T22:31:42.962Z,14.63
2022-10-19T22:34:10.436Z,13.77
2022-10-19T22:36:34.002Z,12.35
2022-10-19T22:38:58.993Z,13.00
2022-10-19T22:41:22.601Z,12.85
2022-10-19T22:43:46.236Z,13.50
2022-10-19T22:46:10.012Z,12.73
2022-10-19T22:48:33.675Z,12.43
2022-10-19T22:50:57.735Z,13.47
2022-10-19T22:53:21.515Z,12.27
2022-10-19T22:55:46.441Z,14.00
2022-10-19T23:00:35.226Z,11.88
2022-10-19T23:02:58.839Z,11.45
2022-10-19T23:05:22.718Z,10.63
2022-10-19T23:07:46.357Z,10.70
2022-10-19T23:10:10.494Z,10.85
2022-10-19T23:12:35.555Z,9.53
2022-10-19T23:14:59.129Z,9.73
2022-10-19T23:17:22.699Z,10.20
2022-10-19T23:19:46.262Z,11.47
2022-10-19T23:22:09.851Z,9.73
2022-10-19T23:24:33.459Z,9.60
2022-10-19T23:26:57.027Z,9.13
2022-10-19T23:29:22.189Z,9.23
2022-10-19T23:31:45.790Z,8.87
2022-10-19T23:34:09.360Z,9.07
2022-10-19T23:36:32.971Z,9.33
2022-10-19T23:38:58.382Z,9.33
2022-10-19T23:41:22.785Z,9.53
2022-10-19T23:43:46.711Z,9.30
2022-10-19T23:46:12.102Z,8.97
2022-10-19T23:48:36.581Z,8.77
2022-10-19T23:51:01.769Z,7.93
2022-10-19T23:53:25.666Z,8.48
2022-10-19T23:55:49.189Z,7.67
2022-10-19T23:58:12.764Z,8.07
